Time;durP1;ratioP1;P1;durP2;ratioP2;P2;SDS_P1;SDS_P2;PMS_P1;PMS_P2;Temp;Humidity;BMP_temperature;BMP_pressure;BME280_temperature;BME280_humidity;BME280_pressure;Samples;Min_cycle;Max_cycle;Signal;HPM_P1;HPM_P2
2022/07/26 00:00:15;;;;;;;0.20;0.20;;;;;;;22.35;46.22;100812.59;5161059;28;20030;-79
2022/07/26 00:02:45;;;;;;;0.20;0.20;;;;;;;22.36;47.47;100809.78;5144975;28;20659;-80
2022/07/26 00:05:18;;;;;;;0.20;0.20;;;;;;;22.36;46.94;100814.25;5173137;28;20050;-80
2022/07/26 00:07:49;;;;;;;;;;;;;;;22.39;45.88;100814.03;5148820;28;20458;-79
2022/07/26 00:10:19;;;;;;;0.20;0.20;;;;;;;22.39;46.25;100812.28;5194934;28;19901;-80
2022/07/26 00:12:50;;;;;;;2.95;0.68;;;;;;;22.30;46.39;100811.09;5178214;28;20075;-81
2022/07/26 00:15:21;;;;;;;1.27;0.65;;;;;;;22.25;47.39;100812.41;5165529;28;20568;-79
2022/07/26 00:17:54;;;;;;;0.20;0.20;;;;;;;22.32;45.98;100802.94;5164695;28;20017;-80
2022/07/26 00:20:25;;;;;;;0.40;0.40;;;;;;;22.27;47.01;100808.63;5212153;28;20349;-79
2022/07/26 00:22:56;;;;;;;2.85;1.30;;;;;;;22.30;46.17;100805.75;5182105;28;20075;-79
2022/07/26 00:25:27;;;;;;;0.20;0.20;;;;;;;22.31;45.97;100812.81;5188716;28;20049;-80
2022/07/26 00:27:59;;;;;;;1.17;1.00;;;;;;;22.32;46.46;100809.16;5192027;28;20071;-80
2022/07/26 00:30:33;;;;;;;0.40;0.40;;;;;;;22.30;46.12;100803.06;5157243;28;20849;-80
2022/07/26 00:33:04;;;;;;;0.30;0.30;;;;;;;22.14;47.56;100803.41;5155582;28;20026;-80
2022/07/26 00:35:35;;;;;;;0.25;0.25;;;;;;;22.26;46.01;100796.28;5173900;28;20045;-81
2022/07/26 00:38:07;;;;;;;0.30;0.30;;;;;;;22.30;46.51;100795.06;5145668;28;20029;-81
2022/07/26 00:40:38;;;;;;;0.20;0.20;;;;;;;22.25;46.80;100807.06;5161642;28;20137;-81
2022/07/26 00:43:10;;;;;;;2.28;1.67;;;;;;;22.21;46.77;100801.09;5147094;28;20121;-81
2022/07/26 00:45:41;;;;;;;0.20;0.20;;;;;;;22.20;46.56;100803.91;5161810;28;20553;-80
2022/07/26 00:48:11;;;;;;;0.20;0.20;;;;;;;22.20;46.42;100799.38;5146621;28;20084;-81
2022/07/26 00:50:42;;;;;;;0.20;0.20;;;;;;;22.03;48.09;100800.66;5163691;28;20084;-80
2022/07/26 00:53:17;;;;;;;1.65;0.90;;;;;;;22.03;47.72;100803.34;5153798;28;20053;-80
2022/07/26 00:55:49;;;;;;;0.30;0.30;;;;;;;22.09;47.41;100804.69;5213711;28;20045;-81
2022/07/26 00:58:19;;;;;;;2.75;0.28;;;;;;;21.99;48.35;100805.38;5178096;28;20021;-81
2022/07/26 01:00:50;;;;;;;0.35;0.35;;;;;;;21.79;49.95;100804.19;5201981;28;20132;-80
2022/07/26 01:03:20;;;;;;;3.03;0.50;;;;;;;21.73;49.75;100811.78;5186667;28;20021;-80
2022/07/26 01:05:51;;;;;;;2.60;0.95;;;;;;;21.75;48.98;100799.19;5205989;28;20033;-80
2022/07/26 01:08:22;;;;;;;0.20;0.20;;;;;;;21.50;49.94;100804.44;5196413;28;20021;-80
2022/07/26 01:10:53;;;;;;;0.20;0.20;;;;;;;21.33;51.22;100811.00;5204792;28;20060;-80
2022/07/26 01:13:24;;;;;;;0.40;0.40;;;;;;;21.43;50.22;100794.31;5170952;28;20325;-80
2022/07/26 01:15:54;;;;;;;0.75;0.65;;;;;;;21.18;52.06;100806.75;5181150;28;20729;-80
2022/07/26 01:18:25;;;;;;;0.52;0.52;;;;;;;21.19;50.68;100797.78;5171391;28;20430;-80
2022/07/26 01:21:03;;;;;;;0.38;0.38;;;;;;;21.00;53.08;100800.88;5172763;28;20442;-80
2022/07/26 01:23:34;;;;;;;0.28;0.28;;;;;;;21.07;52.09;100808.34;5168839;28;20043;-81
2022/07/26 01:26:04;;;;;;;0.20;0.20;;;;;;;20.94;52.21;100807.50;5166778;28;20045;-80
2022/07/26 01:28:39;;;;;;;0.40;0.40;;;;;;;20.92;53.06;100812.09;5148426;28;20030;-80
2022/07/26 01:31:13;;;;;;;0.20;0.20;;;;;;;21.01;51.62;100811.47;5165533;28;20034;-81
2022/07/26 01:33:44;;;;;;;0.30;0.30;;;;;;;20.97;52.43;100804.63;5168542;28;20604;-81
2022/07/26 01:36:15;;;;;;;0.20;0.20;;;;;;;20.83;53.12;100812.72;5156981;28;20042;-82
2022/07/26 01:38:45;;;;;;;2.72;2.05;;;;;;;20.87;51.99;100808.88;5187530;28;20102;-80
2022/07/26 01:41:21;;;;;;;0.47;0.47;;;;;;;20.75;53.61;100810.56;5172846;28;20046;-80
2022/07/26 01:43:52;;;;;;;0.20;0.20;;;;;;;20.64;53.85;100808.63;5171780;28;20014;-80
2022/07/26 01:46:22;;;;;;;0.20;0.20;;;;;;;20.45;54.22;100807.19;5179725;28;20048;-80
2022/07/26 01:48:53;;;;;;;9.07;1.60;;;;;;;20.55;54.61;100806.56;5153214;28;20033;-80
2022/07/26 01:51:24;;;;;;;0.20;0.20;;;;;;;20.16;56.40;100813.63;5200277;28;20064;-80
2022/07/26 01:53:54;;;;;;;2.63;0.82;;;;;;;20.42;54.24;100814.53;5188039;28;20026;-79
2022/07/26 01:56:25;;;;;;;0.22;0.22;;;;;;;20.39;54.58;100815.59;5190224;28;20053;-80
2022/07/26 01:58:55;;;;;;;0.65;0.65;;;;;;;20.28;55.85;100823.47;5176746;28;20055;-80
2022/07/26 02:01:26;;;;;;;0.22;0.22;;;;;;;20.17;56.15;100826.00;5185692;28;20065;-81
2022/07/26 02:03:56;;;;;;;0.20;0.20;;;;;;;20.19;56.43;100827.59;5169043;28;20071;-81
2022/07/26 02:06:27;;;;;;;0.32;0.32;;;;;;;20.13;56.61;100822.69;5205199;28;20065;-80
2022/07/26 02:08:58;;;;;;;0.35;0.30;;;;;;;20.21;55.87;100819.50;5194726;28;20108;-80
2022/07/26 02:11:28;;;;;;;0.20;0.20;;;;;;;20.08;57.41;100827.47;5164374;28;20077;-80
2022/07/26 02:13:59;;;;;;;0.88;0.80;;;;;;;20.16;56.56;100819.81;5148771;28;20038;-80
2022/07/26 02:16:29;;;;;;;0.30;0.30;;;;;;;19.86;58.11;100826.19;5146723;28;20636;-80
2022/07/26 02:19:00;;;;;;;1.38;1.27;;;;;;;19.91;57.54;100823.22;5151311;28;20026;-81
2022/07/26 02:21:31;;;;;;;0.22;0.22;;;;;;;19.94;57.64;100826.53;5160634;28;20050;-81
2022/07/26 02:24:02;;;;;;;0.20;0.20;;;;;;;19.83;58.10;100826.38;5165813;28;20026;-80
2022/07/26 02:26:33;;;;;;;2.92;0.95;;;;;;;19.84;57.41;100820.06;5147253;28;20043;-81
2022/07/26 02:29:03;;;;;;;0.30;0.30;;;;;;;19.82;58.46;100830.81;5148267;28;20487;-81
2022/07/26 02:31:38;;;;;;;0.20;0.20;;;;;;;19.71;58.98;100822.66;5163239;28;20045;-80
2022/07/26 02:34:09;;;;;;;0.22;0.22;;;;;;;19.73;58.90;100825.25;5162585;28;20030;-80
2022/07/26 02:36:40;;;;;;;0.30;0.30;;;;;;;19.60;59.13;100825.16;5180004;28;20058;-81
2022/07/26 02:39:14;;;;;;;0.43;0.43;;;;;;;19.64;59.21;100824.00;5163169;28;20049;-80
2022/07/26 02:41:44;;;;;;;0.30;0.30;;;;;;;19.71;57.54;100829.81;5164088;28;20046;-81
2022/07/26 02:44:15;;;;;;;0.30;0.30;;;;;;;19.76;57.76;100835.66;5166781;28;20110;-80
2022/07/26 02:46:45;;;;;;;0.60;0.60;;;;;;;19.70;58.86;100836.06;5180304;28;20038;-80
2022/07/26 02:49:16;;;;;;;0.20;0.20;;;;;;;19.62;58.81;100833.91;5178778;28;20621;-80
2022/07/26 02:51:47;;;;;;;0.20;0.20;;;;;;;19.69;58.37;100831.69;5205201;28;20053;-81
2022/07/26 02:54:18;;;;;;;0.52;0.30;;;;;;;19.49;59.27;100831.19;5193423;28;20045;-82
2022/07/26 02:56:48;;;;;;;1.45;0.75;;;;;;;19.55;59.17;100836.09;5180764;28;20042;-80
2022/07/26 02:59:19;;;;;;;0.25;0.25;;;;;;;19.47;60.17;100841.91;5205055;28;20041;-80
2022/07/26 03:01:50;;;;;;;0.20;0.20;;;;;;;19.54;60.03;100845.03;5197139;28;20044;-80
2022/07/26 03:04:20;;;;;;;1.75;1.63;;;;;;;19.55;59.62;100841.44;5163994;28;20029;-80
2022/07/26 03:06:51;;;;;;;0.65;0.40;;;;;;;19.51;59.80;100842.56;5171415;28;20088;-80
2022/07/26 03:09:25;;;;;;;1.65;1.23;;;;;;;19.60;58.97;100843.81;5165535;28;20384;-81
2022/07/26 03:11:56;;;;;;;0.38;0.38;;;;;;;19.46;59.87;100848.16;5175800;28;20033;-81
2022/07/26 03:14:27;;;;;;;0.45;0.45;;;;;;;19.49;60.19;100845.31;5183734;28;20034;-81
2022/07/26 03:16:58;;;;;;;2.33;0.57;;;;;;;19.60;59.45;100849.13;5183017;28;20091;-80
2022/07/26 03:19:31;;;;;;;1.65;0.98;;;;;;;19.35;60.92;100850.66;5191191;28;20040;-81
2022/07/26 03:22:04;;;;;;;0.52;0.52;;;;;;;19.46;59.89;100857.97;5199066;28;20017;-80
2022/07/26 03:24:35;;;;;;;13.23;1.15;;;;;;;19.42;60.48;100846.66;5199436;28;20426;-81
2022/07/26 03:27:06;;;;;;;0.40;0.40;;;;;;;19.31;61.73;100849.13;5183614;28;20022;-80
2022/07/26 03:29:37;;;;;;;1.75;1.20;;;;;;;19.41;60.24;100852.94;5184706;28;20037;-81
2022/07/26 03:32:08;;;;;;;0.40;0.40;;;;;;;19.41;60.75;100860.06;5167867;28;20113;-80
2022/07/26 03:34:39;;;;;;;0.40;0.40;;;;;;;19.41;60.28;100866.22;5213507;28;20487;-80
2022/07/26 03:37:09;;;;;;;0.22;0.22;;;;;;;19.35;61.48;100861.31;5208747;28;20063;-80
2022/07/26 03:39:43;;;;;;;0.30;0.30;;;;;;;19.39;61.03;100862.81;5196987;28;20033;-81
2022/07/26 03:42:15;;;;;;;5.82;1.85;;;;;;;19.32;61.39;100870.34;5179564;28;20025;-81
2022/07/26 03:44:45;;;;;;;0.20;0.20;;;;;;;19.22;62.17;100868.31;5161464;28;20042;-80
2022/07/26 03:47:16;;;;;;;0.30;0.30;;;;;;;19.34;61.36;100873.72;5146602;28;20559;-81
2022/07/26 03:49:49;;;;;;;0.75;0.40;;;;;;;19.28;62.13;100876.78;5145809;28;20036;-81
2022/07/26 03:52:20;;;;;;;0.30;0.30;;;;;;;19.39;60.04;100875.25;5162952;28;20033;-80
2022/07/26 03:54:50;;;;;;;0.30;0.30;;;;;;;19.32;61.31;100882.75;5144457;28;20092;-81
2022/07/26 03:57:21;;;;;;;0.40;0.40;;;;;;;19.28;62.08;100875.94;5145806;28;20034;-80
2022/07/26 03:59:51;;;;;;;0.20;0.20;;;;;;;19.36;61.16;100884.28;5178043;28;20045;-81
2022/07/26 04:02:22;;;;;;;0.22;0.22;;;;;;;19.18;63.05;100876.50;5163024;28;20056;-81
2022/07/26 04:04:56;;;;;;;0.60;0.60;;;;;;;19.22;62.35;100876.28;5145440;28;20069;-82
2022/07/26 04:07:27;;;;;;;0.50;0.50;;;;;;;19.25;61.31;100878.78;5180263;28;20148;-82
2022/07/26 04:09:57;;;;;;;2.83;1.67;;;;;;;19.15;63.18;100876.66;5178968;28;20120;-82
2022/07/26 04:12:28;;;;;;;0.55;0.30;;;;;;;19.18;62.59;100881.81;5147109;28;20026;-82
2022/07/26 04:14:58;;;;;;;0.35;0.35;;;;;;;19.25;62.87;100876.97;5160197;28;20125;-82
2022/07/26 04:17:35;;;;;;;1.05;1.05;;;;;;;19.04;64.37;100879.13;5182320;28;20493;-82
2022/07/26 04:20:09;;;;;;;0.28;0.28;;;;;;;19.10;63.38;100884.06;5213032;28;20060;-82
2022/07/26 04:22:40;;;;;;;1.10;1.05;;;;;;;19.04;64.01;100884.47;5165438;28;20017;-83
2022/07/26 04:25:10;;;;;;;0.32;0.28;;;;;;;19.01;65.11;100881.97;5175728;28;20716;-81
2022/07/26 04:27:41;;;;;;;0.20;0.20;;;;;;;19.02;64.73;100886.34;5168120;28;20033;-81
2022/07/26 04:30:12;;;;;;;0.30;0.30;;;;;;;19.06;63.97;100881.69;5151308;28;20048;-81
2022/07/26 04:32:45;;;;;;;4.85;1.20;;;;;;;19.01;65.18;100885.47;5149744;28;20045;-82
2022/07/26 04:35:16;;;;;;;8.75;1.40;;;;;;;18.91;65.32;100878.13;5165134;28;20125;-81
2022/07/26 04:37:47;;;;;;;0.45;0.45;;;;;;;18.91;65.68;100878.13;5182565;28;20164;-81
2022/07/26 04:40:21;;;;;;;0.60;0.60;;;;;;;18.95;65.38;100895.63;5151224;28;20087;-81
2022/07/26 04:42:55;;;;;;;0.65;0.57;;;;;;;19.02;64.66;100891.66;5180923;28;20044;-82
2022/07/26 04:45:30;;;;;;;0.40;0.40;;;;;;;19.09;65.29;100900.97;5164372;28;20056;-82
2022/07/26 04:48:00;;;;;;;0.35;0.35;;;;;;;19.04;65.13;100892.44;5180204;28;20048;-80
2022/07/26 04:50:31;;;;;;;6.93;0.40;;;;;;;19.01;65.59;100895.25;5180810;28;20121;-81
2022/07/26 04:53:02;;;;;;;0.55;0.55;;;;;;;18.93;66.38;100892.22;5179978;28;20065;-82
2022/07/26 04:55:33;;;;;;;0.22;0.22;;;;;;;18.99;65.48;100895.38;5161223;28;20606;-81
2022/07/26 04:58:04;;;;;;;0.85;0.40;;;;;;;19.02;65.70;100902.28;5171013;28;20104;-81
2022/07/26 05:00:36;;;;;;;0.52;0.50;;;;;;;19.03;65.07;100902.19;5166614;28;20046;-81
2022/07/26 05:03:07;;;;;;;0.32;0.32;;;;;;;19.04;65.84;100903.06;5166465;28;20080;-82
2022/07/26 05:05:38;;;;;;;0.30;0.30;;;;;;;19.02;66.06;100899.63;5149101;28;20057;-81
2022/07/26 05:08:09;;;;;;;0.35;0.35;;;;;;;18.97;66.21;100905.22;5180106;28;20029;-81
2022/07/26 05:10:42;;;;;;;0.28;0.28;;;;;;;19.08;65.21;100907.25;5172439;28;20572;-81
2022/07/26 05:13:13;;;;;;;0.40;0.40;;;;;;;19.12;65.92;100905.25;5151044;28;20061;-82
2022/07/26 05:15:44;;;;;;;8.20;0.57;;;;;;;19.08;66.55;100907.25;5185151;28;20084;-82
2022/07/26 05:18:15;;;;;;;0.55;0.55;;;;;;;19.19;64.23;100898.59;5188767;28;20721;-82
2022/07/26 05:20:46;;;;;;;0.50;0.50;;;;;;;19.20;63.69;100905.66;5188496;28;20124;-81
2022/07/26 05:23:17;;;;;;;0.40;0.40;;;;;;;19.23;65.03;100901.94;5189949;28;20113;-81
2022/07/26 05:25:50;;;;;;;0.80;0.80;;;;;;;19.17;65.19;100906.69;5187371;28;20051;-81
2022/07/26 05:28:24;;;;;;;1.45;1.15;;;;;;;19.16;65.21;100904.97;5188417;28;20073;-82
2022/07/26 05:30:54;;;;;;;0.20;0.20;;;;;;;19.05;66.21;100904.75;5188929;28;20064;-82
2022/07/26 05:33:25;;;;;;;1.45;1.35;;;;;;;19.13;66.38;100915.78;5205438;28;20050;-81
2022/07/26 05:35:55;;;;;;;0.57;0.57;;;;;;;19.16;65.65;100912.13;5185467;28;20060;-81
2022/07/26 05:38:26;;;;;;;0.20;0.20;;;;;;;19.12;66.14;100910.56;5182962;28;20033;-81
2022/07/26 05:40:59;;;;;;;0.28;0.28;;;;;;;19.18;65.57;100907.53;5170342;28;20048;-82
2022/07/26 05:43:30;;;;;;;1.00;1.00;;;;;;;19.28;64.01;100907.84;5169734;28;20022;-82
2022/07/26 05:46:01;;;;;;;3.97;2.30;;;;;;;19.28;65.70;100911.34;5184609;28;20034;-82
2022/07/26 05:48:33;;;;;;;0.77;0.65;;;;;;;19.32;65.12;100914.69;5178238;28;20034;-81
2022/07/26 05:51:03;;;;;;;0.20;0.20;;;;;;;19.37;63.86;100909.97;5183064;28;20106;-82
2022/07/26 05:53:35;;;;;;;0.70;0.70;;;;;;;19.19;66.29;100915.44;5176014;28;20478;-82
2022/07/26 05:56:07;;;;;;;0.43;0.43;;;;;;;19.33;65.76;100916.41;5168077;28;20057;-82
2022/07/26 05:58:38;;;;;;;0.30;0.30;;;;;;;19.38;64.64;100914.31;5201744;28;20055;-82
2022/07/26 06:01:09;;;;;;;0.20;0.20;;;;;;;19.43;63.59;100919.34;5171346;28;20544;-82
2022/07/26 06:03:40;;;;;;;1.55;1.38;;;;;;;19.48;63.20;100920.78;5165548;28;20085;-81
2022/07/26 06:06:14;;;;;;;0.20;0.20;;;;;;;19.49;64.02;100919.81;5150049;28;20133;-81
2022/07/26 06:08:44;;;;;;;0.55;0.50;;;;;;;19.54;64.11;100918.72;5170391;28;20029;-82
2022/07/26 06:11:15;;;;;;;0.20;0.20;;;;;;;19.50;64.53;100924.22;5179518;28;20703;-83
2022/07/26 06:13:46;;;;;;;0.30;0.30;;;;;;;19.60;63.81;100927.16;5165911;28;20025;-82
2022/07/26 06:16:17;;;;;;;0.28;0.28;;;;;;;19.56;64.83;100924.75;5189439;28;20219;-82
2022/07/26 06:18:50;;;;;;;7.43;0.75;;;;;;;19.54;65.21;100924.88;5184327;28;20040;-82
2022/07/26 06:21:21;;;;;;;2.08;0.65;;;;;;;19.56;64.06;100924.75;5151376;28;20160;-81
2022/07/26 06:23:52;;;;;;;2.97;1.48;;;;;;;19.68;63.99;100937.31;5171620;28;20457;-81
2022/07/26 06:26:22;;;;;;;7.35;0.50;;;;;;;19.61;63.74;100930.69;5161660;28;20037;-81
2022/07/26 06:28:53;;;;;;;0.65;0.65;;;;;;;19.53;65.68;100939.13;5147040;28;20037;-81
2022/07/26 06:31:23;;;;;;;3.00;2.08;;;;;;;19.67;63.38;100941.78;5145658;28;20508;-80
2022/07/26 06:33:54;;;;;;;9.52;2.15;;;;;;;19.76;63.69;100948.34;5163573;28;20061;-81
2022/07/26 06:36:25;;;;;;;0.82;0.82;;;;;;;19.79;63.35;100953.47;5145642;28;20042;-81
2022/07/26 06:38:55;;;;;;;0.30;0.30;;;;;;;19.72;65.23;100951.31;5147842;28;20180;-81
2022/07/26 06:41:26;;;;;;;0.40;0.40;;;;;;;19.66;66.03;100956.06;5162597;28;20045;-80
2022/07/26 06:43:57;;;;;;;1.88;1.70;;;;;;;19.74;64.57;100955.56;5165524;28;20454;-81
2022/07/26 06:46:27;;;;;;;8.05;1.17;;;;;;;19.64;65.92;100955.28;5161654;28;20050;-80
2022/07/26 06:48:58;;;;;;;0.43;0.43;;;;;;;19.78;64.47;100964.22;5178593;28;20310;-80
2022/07/26 06:51:28;;;;;;;4.15;1.65;;;;;;;19.63;65.54;100966.00;5164691;28;20109;-80
2022/07/26 06:53:59;;;;;;;0.30;0.30;;;;;;;19.57;66.99;100964.63;5164369;28;20026;-79
2022/07/26 06:56:31;;;;;;;2.70;0.30;;;;;;;19.66;65.20;100963.19;5145608;28;20132;-80
2022/07/26 06:59:02;;;;;;;1.17;1.08;;;;;;;19.71;66.12;100963.75;5148030;28;20087;-81
2022/07/26 07:01:32;;;;;;;1.20;1.10;;;;;;;19.72;66.07;100965.44;5146250;28;20042;-80
2022/07/26 07:04:04;;;;;;;0.65;0.65;;;;;;;19.85;64.04;100968.25;5177381;28;20024;-80
2022/07/26 07:06:35;;;;;;;0.55;0.55;;;;;;;19.89;63.60;100976.91;5182658;28;20046;-82
2022/07/26 07:09:09;;;;;;;2.72;1.35;;;;;;;20.00;63.91;100973.59;5146676;28;20041;-82
2022/07/26 07:11:40;;;;;;;0.50;0.50;;;;;;;19.95;64.47;100976.53;5161452;28;20045;-80
2022/07/26 07:14:10;;;;;;;0.50;0.50;;;;;;;19.93;64.04;100978.44;5148724;28;20049;-80
2022/07/26 07:16:41;;;;;;;0.98;0.30;;;;;;;20.02;64.85;100972.53;5145916;28;20509;-80
2022/07/26 07:19:12;;;;;;;3.22;0.90;;;;;;;20.03;64.92;100986.69;5148956;28;20108;-80
2022/07/26 07:21:42;;;;;;;4.38;2.35;;;;;;;20.07;63.46;100982.91;5163662;28;20494;-80
2022/07/26 07:24:13;;;;;;;0.73;0.73;;;;;;;20.05;65.13;100987.44;5146406;28;20475;-79
2022/07/26 07:26:44;;;;;;;0.70;0.70;;;;;;;20.12;64.00;100986.94;5160018;28;20052;-81
2022/07/26 07:29:16;;;;;;;1.35;1.15;;;;;;;20.07;65.45;100990.88;5147550;28;20092;-80
2022/07/26 07:31:47;;;;;;;5.07;3.35;;;;;;;20.00;65.75;101003.72;5161196;28;20252;-80
2022/07/26 07:34:21;;;;;;;2.38;2.25;;;;;;;20.00;66.07;100998.41;5146404;28;20024;-80
2022/07/26 07:36:52;;;;;;;1.02;0.90;;;;;;;20.03;64.83;100995.56;5187232;28;20046;-81
2022/07/26 07:39:23;;;;;;;0.88;0.80;;;;;;;20.10;65.32;101004.88;5161445;28;20109;-80
2022/07/26 07:41:53;;;;;;;1.05;1.05;;;;;;;20.10;65.58;100998.66;5183966;28;20079;-79
2022/07/26 07:44:24;;;;;;;1.38;1.27;;;;;;;20.08;65.94;100993.44;5148273;28;20372;-80
2022/07/26 07:46:54;;;;;;;8.50;2.33;;;;;;;20.16;65.83;100995.63;5179885;28;20041;-83
2022/07/26 07:49:25;;;;;;;1.48;1.08;;;;;;;20.13;66.36;100993.16;5192058;28;20017;-81
2022/07/26 07:51:56;;;;;;;1.23;0.85;;;;;;;20.22;64.86;100999.69;5148607;28;20093;-81
2022/07/26 07:54:26;;;;;;;7.53;1.42;;;;;;;20.26;65.14;100996.75;5164427;28;20069;-80
2022/07/26 07:56:57;;;;;;;1.48;1.38;;;;;;;20.34;64.33;101000.72;5196726;28;20045;-81
2022/07/26 07:59:27;;;;;;;0.43;0.43;;;;;;;20.48;63.51;100999.84;5137223;28;20037;-82
2022/07/26 08:01:58;;;;;;;3.40;1.80;;;;;;;20.53;63.17;101000.41;5202582;28;20039;-81
2022/07/26 08:04:29;;;;;;;2.97;1.73;;;;;;;20.52;63.84;101001.38;5183875;28;20021;-81
2022/07/26 08:07:00;;;;;;;3.05;0.73;;;;;;;20.65;62.96;101009.41;5170552;28;20028;-81
2022/07/26 08:09:31;;;;;;;0.68;0.68;;;;;;;20.64;63.36;101010.38;5167227;28;20042;-81
2022/07/26 08:12:02;;;;;;;2.90;1.88;;;;;;;20.72;62.89;101002.72;5174466;28;20036;-80
2022/07/26 08:14:33;;;;;;;0.60;0.60;;;;;;;20.66;63.85;100997.81;5189414;28;20147;-80
2022/07/26 08:17:03;;;;;;;0.73;0.73;;;;;;;20.66;63.48;101009.31;5168051;28;20140;-81
2022/07/26 08:19:34;;;;;;;0.70;0.63;;;;;;;20.84;62.01;101009.94;5176129;28;20451;-81
2022/07/26 08:25:10;;;;;;;0.88;0.85;;;;;;;20.88;62.40;101002.59;5199390;28;20045;-82
2022/07/26 08:27:41;;;;;;;0.73;0.73;;;;;;;21.01;61.43;100995.50;5201942;28;20048;-82
2022/07/26 08:30:11;;;;;;;2.88;1.13;;;;;;;20.99;61.92;101010.75;5165037;28;20033;-82
2022/07/26 08:32:42;;;;;;;0.60;0.60;;;;;;;21.10;61.23;101006.50;5170079;28;20030;-81
2022/07/26 08:35:15;;;;;;;3.17;1.40;;;;;;;21.21;60.54;100998.63;5184059;28;20049;-81
2022/07/26 08:37:47;;;;;;;1.35;1.25;;;;;;;21.04;61.82;101007.78;5204475;28;20056;-81
2022/07/26 08:40:17;;;;;;;0.57;0.57;;;;;;;21.23;60.94;101004.72;5189045;28;20649;-80
2022/07/26 08:42:53;;;;;;;5.72;2.15;;;;;;;21.35;60.80;101011.91;5193522;28;20052;-81
2022/07/26 08:45:34;;;;;;;0.28;0.28;;;;;;;21.31;60.56;101009.53;5159595;28;20128;-82
2022/07/26 08:48:31;;;;;;;0.30;0.30;;;;;;;21.42;60.29;101015.00;5193023;28;20781;-79
2022/07/26 08:54:12;;;;;;;;;;;;;;;;;;;;;
2022/07/26 08:56:52;;;;;;;0.30;0.30;;;;;;;21.49;59.48;101013.59;5207115;28;20144;-81
2022/07/26 08:59:33;;;;;;;;;;;;;;;;;;;;;
2022/07/26 09:02:14;;;;;;;0.45;0.45;;;;;;;21.60;59.35;101009.38;5194656;28;20686;-80
2022/07/26 09:04:45;;;;;;;0.73;0.73;;;;;;;21.57;59.89;101014.91;5178967;28;20777;-81
2022/07/26 09:07:18;;;;;;;1.77;0.95;;;;;;;21.69;59.07;101020.25;5223929;28;20079;-81
2022/07/26 09:09:55;;;;;;;;;;;;;;;21.80;59.06;101018.66;5213891;28;20065;-81
2022/07/26 09:12:31;;;;;;;0.40;0.40;;;;;;;21.82;59.07;101024.78;5166337;28;19917;-83
2022/07/26 09:15:16;;;;;;;0.50;0.50;;;;;;;21.89;58.09;101015.34;5149841;28;20762;-81
2022/07/26 09:17:52;;;;;;;0.40;0.40;;;;;;;21.99;58.03;101021.78;5152003;28;20046;-81
2022/07/26 09:20:30;;;;;;;2.28;0.30;;;;;;;22.02;57.62;101026.88;5146448;28;20298;-81
2022/07/26 09:23:08;;;;;;;1.20;0.75;;;;;;;21.84;57.93;101022.84;5183938;28;20026;-80
2022/07/26 09:25:41;;;;;;;1.90;1.13;;;;;;;21.66;57.90;101015.16;5142077;28;20113;-80
2022/07/26 09:28:24;;;;;;;;;;;;;;;21.56;58.60;101024.72;5162965;28;20025;-78
2022/07/26 09:30:55;;;;;;;0.63;0.63;;;;;;;21.63;57.81;101028.72;5151829;28;20448;-79
2022/07/26 09:33:42;;;;;;;0.25;0.25;;;;;;;21.72;57.49;101026.38;5150818;28;20022;-81
2022/07/26 09:36:13;;;;;;;0.85;0.47;;;;;;;21.66;57.78;101020.50;5182711;28;20053;-80
2022/07/26 09:38:49;;;;;;;0.50;0.30;;;;;;;21.84;57.46;101022.84;5152570;28;20037;-79
2022/07/26 09:41:20;;;;;;;0.20;0.20;;;;;;;21.82;56.74;101016.75;5166498;28;20054;-80
2022/07/26 09:47:44;;;;;;;;;;;;;;;;;;;;;
2022/07/26 09:51:44;;;;;;;;;;;;;;;;;;;;;
2022/07/26 09:58:24;;;;;;;0.60;0.60;;;;;;;22.17;55.18;101029.44;5057453;29;20046;-81
2022/07/26 10:00:55;;;;;;;0.93;0.93;;;;;;;22.31;55.15;101026.63;5172676;28;20033;-81
2022/07/26 10:03:36;;;;;;;0.20;0.20;;;;;;;22.45;55.07;101038.16;5193303;28;20045;-81
2022/07/26 10:06:10;;;;;;;0.75;0.60;;;;;;;22.44;53.21;101026.63;5173956;28;20042;-80
2022/07/26 10:08:43;;;;;;;2.13;1.05;;;;;;;22.58;53.59;101032.78;5187054;28;20069;-84
2022/07/26 10:11:18;;;;;;;0.30;0.30;;;;;;;22.48;53.98;101043.31;5181608;28;20034;-81
2022/07/26 10:13:51;;;;;;;2.72;1.45;;;;;;;22.53;54.12;101041.13;5153443;28;20457;-81
2022/07/26 10:16:52;;;;;;;1.00;0.88;;;;;;;22.55;54.12;101044.56;5103475;28;20106;-81
2022/07/26 10:19:40;;;;;;;0.30;0.30;;;;;;;22.65;53.54;101055.44;5126726;28;20034;-80
2022/07/26 10:22:42;;;;;;;0.38;0.38;;;;;;;22.65;52.56;101058.09;5161640;28;20434;-81
2022/07/26 10:25:21;;;;;;;0.30;0.30;;;;;;;22.80;52.54;101050.78;5168765;28;20044;-80
2022/07/26 10:27:54;;;;;;;0.30;0.30;;;;;;;22.84;52.51;101044.25;5199566;28;20029;-80
2022/07/26 10:30:30;;;;;;;;;;;;;;;22.87;51.81;101044.00;5144096;28;20100;-81
2022/07/26 10:33:17;;;;;;;6.60;0.50;;;;;;;22.85;51.64;101045.94;5165447;28;20143;-80
2022/07/26 10:35:47;;;;;;;1.38;1.10;;;;;;;22.91;52.10;101044.63;5192977;28;20048;-80
2022/07/26 10:38:24;;;;;;;0.50;0.50;;;;;;;22.99;52.76;101041.41;5148584;28;20682;-80
2022/07/26 10:41:10;;;;;;;0.30;0.30;;;;;;;22.95;52.75;101036.25;5164888;28;20042;-82
2022/07/26 10:43:41;;;;;;;0.20;0.20;;;;;;;23.02;50.93;101030.44;5183947;28;20530;-80
2022/07/26 10:46:15;;;;;;;0.32;0.32;;;;;;;23.00;50.94;101035.09;5171709;28;20069;-80
2022/07/26 10:48:57;;;;;;;0.25;0.25;;;;;;;23.08;50.49;101044.22;5198919;28;20490;-81
2022/07/26 10:51:37;;;;;;;0.30;0.30;;;;;;;22.99;51.13;101044.06;5156299;28;20109;-82
2022/07/26 10:54:10;;;;;;;0.85;0.63;;;;;;;23.06;50.63;101045.31;5199330;28;20253;-80
2022/07/26 10:56:41;;;;;;;0.30;0.30;;;;;;;23.09;50.35;101050.44;5183269;28;20033;-80
2022/07/26 10:59:12;;;;;;;0.40;0.40;;;;;;;22.92;50.81;101057.91;5170832;28;20038;-82
2022/07/26 11:01:49;;;;;;;0.68;0.68;;;;;;;23.01;50.31;101059.03;5148766;28;20042;-81
2022/07/26 11:04:26;;;;;;;0.20;0.20;;;;;;;22.99;50.51;101057.44;5179160;28;20033;-81
2022/07/26 11:07:25;;;;;;;0.20;0.20;;;;;;;22.94;49.95;101063.16;5186227;28;20052;-81
2022/07/26 11:10:10;;;;;;;0.30;0.30;;;;;;;22.91;50.53;101056.22;5207658;28;20044;-82
2022/07/26 11:12:41;;;;;;;3.83;1.05;;;;;;;22.68;51.62;101068.59;5216196;28;20382;-81
2022/07/26 11:15:18;;;;;;;0.40;0.40;;;;;;;22.62;51.83;101077.91;5186961;28;20045;-81
2022/07/26 11:17:48;;;;;;;10.68;1.45;;;;;;;22.50;51.90;101076.13;5195591;28;20041;-82
2022/07/26 11:20:31;;;;;;;0.85;0.45;;;;;;;22.53;51.49;101078.56;5198968;28;20046;-82
2022/07/26 11:23:05;;;;;;;0.40;0.40;;;;;;;22.54;52.01;101080.28;5192903;28;20049;-82
2022/07/26 11:25:36;;;;;;;0.30;0.30;;;;;;;22.58;51.92;101081.78;5202320;28;20048;-82
2022/07/26 11:28:14;;;;;;;0.28;0.28;;;;;;;22.64;51.96;101083.16;5202159;28;20513;-83
2022/07/26 11:31:42;;;;;;;0.25;0.25;;;;;;;22.61;52.18;101081.53;5189435;28;20060;-82
2022/07/26 11:34:32;;;;;;;0.40;0.40;;;;;;;22.73;52.28;101081.63;5124335;28;20042;-80
2022/07/26 11:38:03;;;;;;;;;;;;;;;;;;;;;
2022/07/26 11:41:28;;;;;;;0.40;0.40;;;;;;;;;;5190644;28;20037;-80
2022/07/26 11:44:14;;;;;;;0.30;0.30;;;;;;;22.87;50.93;101075.28;5184437;28;20042;-82
2022/07/26 11:46:46;;;;;;;0.88;0.38;;;;;;;22.92;51.60;101071.28;5165905;28;20049;-82
2022/07/26 11:49:18;;;;;;;0.13;0.13;;;;;;;22.97;51.51;101065.59;5202166;28;20335;-80
2022/07/26 11:51:53;;;;;;;0.63;0.63;;;;;;;23.06;51.10;101072.06;5201185;28;20460;-81
2022/07/26 11:54:26;;;;;;;0.22;0.22;;;;;;;23.10;50.85;101070.88;5186406;28;20033;-81
2022/07/26 11:56:58;;;;;;;0.52;0.52;;;;;;;23.13;50.83;101076.00;5181893;28;20045;-81
2022/07/26 11:59:31;;;;;;;0.20;0.20;;;;;;;23.13;51.17;101076.00;5199213;28;20037;-81
2022/07/26 12:02:08;;;;;;;0.20;0.20;;;;;;;23.10;50.65;101093.16;5218689;28;20032;-81
2022/07/26 12:04:42;;;;;;;0.20;0.20;;;;;;;23.12;50.47;101093.03;5185798;28;20029;-81
2022/07/26 12:07:18;;;;;;;0.30;0.30;;;;;;;23.03;50.74;101091.91;5185608;28;20482;-80
2022/07/26 12:09:51;;;;;;;0.30;0.30;;;;;;;22.93;51.22;101094.38;5179901;28;20445;-81
2022/07/26 12:12:28;;;;;;;0.20;0.20;;;;;;;22.93;51.67;101093.53;5176357;28;20045;-81
2022/07/26 12:15:08;;;;;;;0.22;0.22;;;;;;;22.97;51.11;101100.38;5182244;28;20644;-82
2022/07/26 12:17:57;;;;;;;0.40;0.40;;;;;;;22.90;51.82;101101.78;5203878;28;20135;-80